Champaign, Illinois
Current Conditions -  °F | °C
As of 11:53 PM on Saturday 22 Nov 2014 (Local Time) from KCMI Reporting Station
Light Rain Light Rain  
Wind Chill: 44°   Ceiling: 6000
Heat Index: 49°   Visibility: 9mi
Dew Point: 46°   Wind: 12mph
Humidity: 90%   Direction: 150°SSE
Pressure: 29.9"   Gusts: NA
Location:  40.11°N, 88.24°W
Report Text: KCMI 230553Z AUTO 15010KT 9SM -RA SCT049 BKN060 OVC095 09/08 A2990 RMK AO2 SLP127 P0003 60018 T00940078 10122 20094 401390017 58008 $
Loading
Personal Weather Stations






























Interactive Weather Map New forecast layout! Learn more

10-Day Weather Forecast

Advertisements
Track Severe Weather on mobile